Time,TemperatureF,DewpointF,PressureIn,WindDirection,WindDirectionDegrees,WindSpeedMPH,WindSpeedGustMPH,Humidity,HourlyPrecipIn,Conditions,Clouds,dailyrainin,SoftwareType,DateUTC
2013-05-25 00:05:00,70.6,70.3,30.10,NE,42,0.0,0.0,99,0.00,,,0.00,Wunderground v.1.15,2013-05-25 05:05:00,
2013-05-25 00:10:00,70.6,70.0,30.09,NE,53,0.0,0.0,98,0.00,,,0.00,Wunderground v.1.15,2013-05-25 05:10:00,
2013-05-25 00:19:00,70.5,70.2,30.09,NE,50,1.0,1.0,99,0.00,,,0.00,Wunderground v.1.15,2013-05-25 05:19:00,
2013-05-25 00:25:00,70.5,70.2,30.09,NE,55,1.0,1.0,99,0.00,,,0.00,Wunderground v.1.15,2013-05-25 05:25:00,
2013-05-25 00:34:00,70.5,70.2,30.10,NE,55,0.0,0.0,99,0.00,,,0.00,Wunderground v.1.15,2013-05-25 05:34:00,
2013-05-25 00:45:00,70.5,70.2,30.11,ENE,61,0.0,0.0,99,0.00,,,0.00,Wunderground v.1.15,2013-05-25 05:45:00,
2013-05-25 00:55:00,70.5,70.2,30.11,ENE,58,0.0,0.0,99,0.00,,,0.00,Wunderground v.1.15,2013-05-25 05:55:00,
2013-05-25 01:04:00,70.5,70.2,30.11,ENE,73,0.0,0.0,99,0.00,,,0.00,Wunderground v.1.15,2013-05-25 06:04:00,
2013-05-25 01:15:00,70.6,70.3,30.11,NE,55,0.0,0.0,99,0.00,,,0.00,Wunderground v.1.15,2013-05-25 06:15:00,
2013-05-25 01:24:00,70.7,70.4,30.11,NE,49,0.0,0.0,99,0.00,,,0.00,Wunderground v.1.15,2013-05-25 06:24:00,
2013-05-25 01:30:00,70.7,70.4,30.11,NE,43,0.0,2.0,99,0.00,,,0.00,Wunderground v.1.15,2013-05-25 06:30:00,
2013-05-25 01:39:00,70.7,70.4,30.10,NE,50,0.0,0.0,99,0.00,,,0.00,Wunderground v.1.15,2013-05-25 06:39:00,
2013-05-25 01:45:00,70.7,70.4,30.11,NE,48,0.0,0.0,99,0.00,,,0.00,Wunderground v.1.15,2013-05-25 06:45:00,
2013-05-25 01:54:00,70.7,70.4,30.10,NNE,33,0.0,0.0,99,0.00,,,0.00,Wunderground v.1.15,2013-05-25 06:54:00,
2013-05-25 02:05:00,70.7,70.4,30.10,North,11,0.0,0.0,99,0.00,,,0.00,Wunderground v.1.15,2013-05-25 07:05:00,
2013-05-25 02:14:00,70.8,70.5,30.10,NNE,18,0.0,0.0,99,0.00,,,0.00,Wunderground v.1.15,2013-05-25 07:14:00,
2013-05-25 02:25:00,70.8,70.5,30.09,NNE,18,0.0,0.0,99,0.00,,,0.01,Wunderground v.1.15,2013-05-25 07:25:00,
2013-05-25 02:35:00,70.8,70.5,30.08,NNE,29,0.0,0.0,99,0.00,,,0.01,Wunderground v.1.15,2013-05-25 07:35:00,
2013-05-25 02:44:00,70.8,70.5,30.08,NNE,29,0.0,0.0,99,0.00,,,0.01,Wunderground v.1.15,2013-05-25 07:44:00,
2013-05-25 02:55:00,70.9,70.6,30.07,NNE,27,0.0,0.0,99,0.00,,,0.01,Wunderground v.1.15,2013-05-25 07:55:00,
2013-05-25 03:04:00,71.1,70.8,30.07,ENE,72,1.0,1.0,99,0.00,,,0.01,Wunderground v.1.15,2013-05-25 08:04:00,
2013-05-25 03:15:00,71.2,70.9,30.06,ENE,72,0.0,0.0,99,0.00,,,0.01,Wunderground v.1.15,2013-05-25 08:15:00,
2013-05-25 03:24:00,71.3,71.0,30.05,North,354,0.0,0.0,99,0.00,,,0.01,Wunderground v.1.15,2013-05-25 08:24:00,
2013-05-25 03:30:00,71.4,71.1,30.05,NE,47,0.0,0.0,99,0.00,,,0.01,Wunderground v.1.15,2013-05-25 08:30:00,
2013-05-25 03:39:00,71.6,71.3,30.05,ENE,75,0.0,1.0,99,0.00,,,0.01,Wunderground v.1.15,2013-05-25 08:39:00,
2013-05-25 03:45:00,71.6,71.3,30.05,East,100,0.0,1.0,99,0.00,,,0.01,Wunderground v.1.15,2013-05-25 08:45:00,
2013-05-25 03:54:00,71.6,71.3,30.04,ENE,57,0.0,1.0,99,0.00,,,0.01,Wunderground v.1.15,2013-05-25 08:54:00,
2013-05-25 04:05:00,71.6,71.3,30.05,ENE,75,0.0,1.0,99,0.00,,,0.01,Wunderground v.1.15,2013-05-25 09:05:00,
2013-05-25 04:14:00,71.6,71.3,30.04,ENE,66,0.0,1.0,99,0.00,,,0.01,Wunderground v.1.15,2013-05-25 09:14:00,
2013-05-25 04:20:00,71.6,71.3,30.04,NE,49,0.0,0.0,99,0.00,,,0.01,Wunderground v.1.15,2013-05-25 09:20:00,
2013-05-25 04:29:00,71.7,71.4,30.05,NE,47,1.0,1.0,99,0.00,,,0.01,Wunderground v.1.15,2013-05-25 09:29:00,
2013-05-25 04:40:00,70.9,70.3,30.03,NE,34,1.0,1.0,98,0.15,,,0.03,Wunderground v.1.15,2013-05-25 09:40:00,
2013-05-25 04:49:00,70.5,70.2,30.02,NW,304,2.0,2.0,99,1.44,,,0.30,Wunderground v.1.15,2013-05-25 09:49:00,
2013-05-25 05:00:00,71.2,70.9,30.02,NE,48,2.0,2.0,99,0.72,,,0.45,Wunderground v.1.15,2013-05-25 10:00:00,
2013-05-25 05:09:00,71.4,71.1,30.02,East,91,2.0,2.0,99,0.38,,,0.65,Wunderground v.1.15,2013-05-25 10:09:00,
2013-05-25 05:15:00,71.6,71.3,30.03,WNW,284,2.0,2.0,99,0.27,,,0.68,Wunderground v.1.15,2013-05-25 10:15:00,
2013-05-25 05:24:00,72.2,71.9,30.03,ENE,67,1.0,1.0,99,0.57,,,0.75,Wunderground v.1.15,2013-05-25 10:24:00,
2013-05-25 05:35:00,72.7,72.7,30.03,East,98,1.0,1.0,100,0.72,,,0.83,Wunderground v.1.15,2013-05-25 10:35:00,
2013-05-25 05:44:00,72.9,72.6,30.02,SSE,152,1.0,1.0,99,0.59,,,0.89,Wunderground v.1.15,2013-05-25 10:44:00,
2013-05-25 05:50:00,73.0,72.7,30.01,ESE,117,2.0,2.0,99,0.14,,,0.90,Wunderground v.1.15,2013-05-25 10:50:00,
2013-05-25 05:59:00,73.2,72.9,30.02,NNE,30,2.0,4.0,99,0.06,,,0.91,Wunderground v.1.15,2013-05-25 10:59:00,
2013-05-25 06:05:00,73.2,72.9,30.03,West,271,2.0,4.0,99,0.14,,,0.93,Wunderground v.1.15,2013-05-25 11:05:00,
2013-05-25 06:14:00,73.3,73.0,30.04,ESE,118,1.0,2.0,99,0.08,,,0.94,Wunderground v.1.15,2013-05-25 11:14:00,
2013-05-25 06:25:00,73.3,73.0,30.05,SSW,213,1.0,2.0,99,0.21,,,0.97,Wunderground v.1.15,2013-05-25 11:25:00,
2013-05-25 06:34:00,73.3,73.0,30.06,SSW,207,1.0,1.0,99,0.12,,,0.99,Wunderground v.1.15,2013-05-25 11:34:00,
2013-05-25 06:40:00,73.4,73.1,30.08,WNW,288,1.0,1.0,99,0.20,,,1.00,Wunderground v.1.15,2013-05-25 11:40:00,
2013-05-25 06:49:00,71.8,71.2,30.08,NNW,332,1.0,2.0,98,0.55,,,1.23,Wunderground v.1.15,2013-05-25 11:49:00,
2013-05-25 06:55:00,71.2,70.6,30.08,ENE,65,2.0,2.0,98,0.24,,,1.25,Wunderground v.1.15,2013-05-25 11:55:00,
2013-05-25 07:04:00,71.2,70.9,30.08,North,351,1.0,2.0,99,0.08,,,1.26,Wunderground v.1.15,2013-05-25 12:04:00,
2013-05-25 07:15:00,70.6,70.0,30.09,NNW,330,1.0,4.0,98,0.23,,,1.30,Wunderground v.1.15,2013-05-25 12:15:00,
2013-05-25 07:24:00,70.5,70.2,30.09,ENE,77,1.0,2.0,99,0.38,,,1.35,Wunderground v.1.15,2013-05-25 12:24:00,
2013-05-25 07:30:00,70.5,70.2,30.09,NNE,25,1.0,1.0,99,0.11,,,1.35,Wunderground v.1.15,2013-05-25 12:30:00,
2013-05-25 07:39:00,70.6,70.3,30.10,NNW,332,1.0,1.0,99,0.05,,,1.36,Wunderground v.1.15,2013-05-25 12:39:00,
2013-05-25 07:45:00,70.7,70.4,30.10,WNW,289,1.0,1.0,99,0.05,,,1.36,Wunderground v.1.15,2013-05-25 12:45:00,
2013-05-25 07:54:00,70.5,70.2,30.10,NNW,334,1.0,1.0,99,1.88,,,1.46,Wunderground v.1.15,2013-05-25 12:54:00,
2013-05-25 08:05:00,70.1,69.8,30.09,NE,55,1.0,1.0,99,0.12,,,1.50,Wunderground v.1.15,2013-05-25 13:05:00,
2013-05-25 08:14:00,69.9,69.6,30.10,NW,307,0.0,2.0,99,0.20,,,1.56,Wunderground v.1.15,2013-05-25 13:14:00,
2013-05-25 08:20:00,69.9,69.6,30.11,NW,307,0.0,0.0,99,0.08,,,1.56,Wunderground v.1.15,2013-05-25 13:20:00,
2013-05-25 08:29:00,69.9,69.6,30.12,NW,307,0.0,0.0,99,0.04,,,1.57,Wunderground v.1.15,2013-05-25 13:29:00,
2013-05-25 08:35:00,69.9,69.6,30.12,SSW,205,0.0,0.0,99,0.17,,,1.59,Wunderground v.1.15,2013-05-25 13:35:00,
2013-05-25 08:44:00,69.8,69.5,30.12,ESE,103,1.0,2.0,99,0.40,,,1.71,Wunderground v.1.15,2013-05-25 13:44:00,
2013-05-25 08:55:00,69.9,69.6,30.12,SE,132,1.0,1.0,99,0.27,,,1.78,Wunderground v.1.15,2013-05-25 13:55:00,
2013-05-25 09:04:00,70.0,69.7,30.12,SE,131,0.0,1.0,99,0.13,,,1.81,Wunderground v.1.15,2013-05-25 14:04:00,
2013-05-25 09:14:00,69.9,69.6,30.12,SE,131,0.0,0.0,99,0.19,,,1.85,Wunderground v.1.15,2013-05-25 14:14:00,
2013-05-25 09:24:00,69.7,69.4,30.13,WSW,245,0.0,0.0,99,0.12,,,1.87,Wunderground v.1.15,2013-05-25 14:24:00,
2013-05-25 09:30:00,69.7,69.4,30.14,NW,326,0.0,1.0,99,0.16,,,1.89,Wunderground v.1.15,2013-05-25 14:30:00,
2013-05-25 09:39:00,69.6,69.3,30.14,WNW,283,0.0,0.0,99,0.15,,,1.91,Wunderground v.1.15,2013-05-25 14:39:00,
2013-05-25 09:45:00,69.6,69.3,30.15,WSW,242,0.0,1.0,99,0.15,,,1.92,Wunderground v.1.15,2013-05-25 14:45:00,
2013-05-25 09:54:00,69.5,69.2,30.15,East,96,0.0,2.0,99,0.34,,,1.96,Wunderground v.1.15,2013-05-25 14:54:00,
2013-05-25 10:00:00,69.3,69.0,30.15,East,96,1.0,1.0,99,0.30,,,1.98,Wunderground v.1.15,2013-05-25 15:00:00,
2013-05-25 10:09:00,69.2,68.9,30.15,ESE,122,0.0,0.0,99,0.07,,,2.00,Wunderground v.1.15,2013-05-25 15:09:00,
2013-05-25 10:15:00,69.2,68.9,30.15,ESE,122,0.0,0.0,99,0.16,,,2.01,Wunderground v.1.15,2013-05-25 15:15:00,
2013-05-25 10:24:00,69.0,68.7,30.15,SSE,156,0.0,0.0,99,0.21,,,2.04,Wunderground v.1.15,2013-05-25 15:24:00,
2013-05-25 10:35:00,68.9,68.6,30.15,WSW,243,0.0,1.0,99,0.21,,,2.09,Wunderground v.1.15,2013-05-25 15:35:00,
2013-05-25 10:44:00,68.8,68.5,30.14,East,82,0.0,0.0,99,0.40,,,2.13,Wunderground v.1.15,2013-05-25 15:44:00,
2013-05-25 10:55:00,69.0,68.7,30.14,ESE,119,0.0,0.0,99,0.32,,,2.18,Wunderground v.1.15,2013-05-25 15:55:00,
2013-05-25 11:04:00,69.4,69.1,30.14,SE,134,0.0,0.0,99,0.18,,,2.22,Wunderground v.1.15,2013-05-25 16:04:00,
2013-05-25 11:10:00,69.8,69.8,30.15,SE,134,0.0,0.0,100,0.12,,,2.23,Wunderground v.1.15,2013-05-25 16:10:00,
2013-05-25 11:19:00,70.8,70.8,30.14,SE,131,0.0,0.0,100,0.04,,,2.23,Wunderground v.1.15,2013-05-25 16:19:00,
2013-05-25 11:25:00,71.1,71.1,30.14,ESE,109,0.0,1.0,100,0.35,,,2.26,Wunderground v.1.15,2013-05-25 16:25:00,
2013-05-25 11:34:00,71.5,71.5,30.14,ESE,110,0.0,1.0,100,0.05,,,2.26,Wunderground v.1.15,2013-05-25 16:34:00,
2013-05-25 11:45:00,71.6,71.3,30.14,SSE,154,1.0,1.0,99,0.00,,,2.26,Wunderground v.1.15,2013-05-25 16:45:00,
2013-05-25 11:54:00,71.9,71.6,30.14,East,85,1.0,1.0,99,0.00,,,2.27,Wunderground v.1.15,2013-05-25 16:54:00,
2013-05-25 12:00:00,72.4,72.1,30.14,SE,132,1.0,3.0,99,0.00,,,2.27,Wunderground v.1.15,2013-05-25 17:00:00,
2013-05-25 12:09:00,72.6,72.3,30.14,ESE,111,2.0,2.0,99,0.00,,,2.27,Wunderground v.1.15,2013-05-25 17:09:00,
2013-05-25 12:15:00,73.0,72.7,30.14,ESE,111,1.0,2.0,99,0.00,,,2.27,Wunderground v.1.15,2013-05-25 17:15:00,
2013-05-25 12:24:00,73.0,72.7,30.14,SSE,150,1.0,1.0,99,0.00,,,2.27,Wunderground v.1.15,2013-05-25 17:24:00,
2013-05-25 12:34:00,72.8,72.5,30.14,SE,145,1.0,1.0,99,0.00,,,2.27,Wunderground v.1.15,2013-05-25 17:34:00,
2013-05-25 12:45:00,72.4,71.8,30.14,East,100,1.0,2.0,98,0.00,,,2.27,Wunderground v.1.15,2013-05-25 17:45:00,
2013-05-25 12:54:00,72.5,72.2,30.13,ESE,122,1.0,1.0,99,0.00,,,2.27,Wunderground v.1.15,2013-05-25 17:54:00,
2013-05-25 13:05:00,72.7,72.4,30.13,South,172,1.0,1.0,99,0.00,,,2.27,Wunderground v.1.15,2013-05-25 18:05:00,
2013-05-25 13:14:00,72.8,72.2,30.13,East,98,1.0,2.0,98,0.00,,,2.27,Wunderground v.1.15,2013-05-25 18:14:00,
2013-05-25 13:24:00,73.0,72.4,30.13,SE,139,1.0,1.0,98,0.00,,,2.27,Wunderground v.1.15,2013-05-25 18:24:00,
2013-05-25 13:35:00,72.8,72.2,30.12,SE,139,1.0,1.0,98,0.00,,,2.27,Wunderground v.1.15,2013-05-25 18:35:00,
2013-05-25 13:44:00,73.3,72.7,30.12,SSE,155,1.0,2.0,98,0.00,,,2.27,Wunderground v.1.15,2013-05-25 18:44:00,
2013-05-25 13:55:00,73.7,72.8,30.11,East,88,2.0,4.0,97,0.00,,,2.27,Wunderground v.1.15,2013-05-25 18:55:00,
2013-05-25 14:04:00,73.8,72.6,30.11,SE,139,2.0,4.0,96,0.00,,,2.27,Wunderground v.1.15,2013-05-25 19:04:00,
2013-05-25 14:10:00,74.4,73.2,30.11,ESE,113,2.0,2.0,96,0.00,,,2.27,Wunderground v.1.15,2013-05-25 19:10:00,
2013-05-25 14:19:00,75.0,73.5,30.10,NNE,12,2.0,2.0,95,0.00,,,2.27,Wunderground v.1.15,2013-05-25 19:19:00,
2013-05-25 14:25:00,75.3,72.8,30.10,SE,141,1.0,2.0,92,0.00,,,2.27,Wunderground v.1.15,2013-05-25 19:25:00,
2013-05-25 14:34:00,75.8,72.3,30.10,SE,129,2.0,3.0,89,0.00,,,2.27,Wunderground v.1.15,2013-05-25 19:34:00,
2013-05-25 14:45:00,76.7,72.5,30.10,East,91,2.0,4.0,87,0.00,,,2.27,Wunderground v.1.15,2013-05-25 19:45:00,
2013-05-25 14:54:00,77.2,72.0,30.09,SE,127,2.0,2.0,84,0.00,,,2.27,Wunderground v.1.15,2013-05-25 19:54:00,
2013-05-25 15:00:00,76.9,71.7,30.09,SE,127,2.0,2.0,84,0.00,,,2.27,Wunderground v.1.15,2013-05-25 20:00:00,
2013-05-25 15:09:00,76.9,72.0,30.09,SSE,147,1.0,2.0,85,0.00,,,2.27,Wunderground v.1.15,2013-05-25 20:09:00,
2013-05-25 15:15:00,76.4,70.9,30.09,SE,124,1.0,2.0,83,0.00,,,2.27,Wunderground v.1.15,2013-05-25 20:15:00,
2013-05-25 15:24:00,76.3,70.4,30.08,SSE,155,0.0,1.0,82,0.00,,,2.27,Wunderground v.1.15,2013-05-25 20:24:00,
2013-05-25 15:35:00,78.2,72.3,30.08,SE,129,1.0,1.0,82,0.00,,,2.27,Wunderground v.1.15,2013-05-25 20:35:00,
2013-05-25 15:44:00,79.5,71.7,30.07,ESE,120,2.0,2.0,77,0.00,,,2.27,Wunderground v.1.15,2013-05-25 20:44:00,
2013-05-25 15:50:00,80.5,72.6,30.07,East,101,1.0,2.0,77,0.00,,,2.27,Wunderground v.1.15,2013-05-25 20:50:00,
2013-05-25 15:59:00,81.7,73.0,30.07,East,98,2.0,2.0,75,0.00,,,2.27,Wunderground v.1.15,2013-05-25 20:59:00,
2013-05-25 16:05:00,82.3,72.4,30.06,SSE,148,1.0,2.0,72,0.00,,,2.27,Wunderground v.1.15,2013-05-25 21:05:00,
2013-05-25 16:14:00,82.0,71.2,30.06,ESE,123,2.0,3.0,70,0.00,,,2.27,Wunderground v.1.15,2013-05-25 21:14:00,
2013-05-25 16:25:00,82.1,72.6,30.06,SSE,150,2.0,2.0,73,0.00,,,2.27,Wunderground v.1.15,2013-05-25 21:25:00,
2013-05-25 16:34:00,82.3,72.8,30.06,East,89,2.0,3.0,73,0.00,,,2.27,Wunderground v.1.15,2013-05-25 21:34:00,
2013-05-25 16:45:00,82.8,73.7,30.06,East,96,2.0,2.0,74,0.00,,,2.27,Wunderground v.1.15,2013-05-25 21:45:00,
2013-05-25 16:54:00,82.7,74.0,30.06,East,98,2.0,3.0,75,0.00,,,2.27,Wunderground v.1.15,2013-05-25 21:54:00,
2013-05-25 17:00:00,82.4,73.3,30.06,East,80,2.0,2.0,74,0.00,,,2.27,Wunderground v.1.15,2013-05-25 22:00:00,
2013-05-25 17:09:00,82.5,73.0,30.05,NNE,16,1.0,1.0,73,0.00,,,2.27,Wunderground v.1.15,2013-05-25 22:09:00,
2013-05-25 17:15:00,82.2,73.5,30.05,SE,139,2.0,2.0,75,0.00,,,2.27,Wunderground v.1.15,2013-05-25 22:15:00,
2013-05-25 17:24:00,81.8,73.9,30.05,ESE,105,2.0,2.0,77,0.00,,,2.27,Wunderground v.1.15,2013-05-25 22:24:00,
2013-05-25 17:34:00,80.6,72.7,30.05,ESE,113,2.0,3.0,77,0.00,,,2.27,Wunderground v.1.15,2013-05-25 22:34:00,
2013-05-25 17:44:00,79.4,72.3,30.04,East,97,2.0,2.0,79,0.00,,,2.27,Wunderground v.1.15,2013-05-25 22:44:00,
2013-05-25 17:50:00,79.3,73.0,30.04,WSW,257,2.0,2.0,81,0.00,,,2.27,Wunderground v.1.15,2013-05-25 22:50:00,
2013-05-25 17:59:00,78.6,72.6,30.04,East,93,1.0,2.0,82,0.00,,,2.27,Wunderground v.1.15,2013-05-25 22:59:00,
2013-05-25 18:05:00,78.3,72.3,30.04,ESE,121,1.0,2.0,82,0.00,,,2.27,Wunderground v.1.15,2013-05-25 23:05:00,
2013-05-25 18:14:00,78.0,72.4,30.04,ESE,120,1.0,2.0,83,0.00,,,2.27,Wunderground v.1.15,2013-05-25 23:14:00,
2013-05-25 18:24:00,77.8,72.6,30.03,East,89,0.0,1.0,84,0.00,,,2.27,Wunderground v.1.15,2013-05-25 23:24:00,
2013-05-25 18:34:00,77.9,73.0,30.03,SSE,150,0.0,2.0,85,0.00,,,2.27,Wunderground v.1.15,2013-05-25 23:34:00,
2013-05-25 18:40:00,78.1,72.5,30.03,SSE,148,1.0,1.0,83,0.00,,,2.27,Wunderground v.1.15,2013-05-25 23:40:00,
2013-05-25 18:49:00,78.3,72.7,30.02,East,86,1.0,1.0,83,0.00,,,2.27,Wunderground v.1.15,2013-05-25 23:49:00,
2013-05-25 18:55:00,78.3,72.7,30.02,SSE,151,1.0,2.0,83,0.00,,,2.27,Wunderground v.1.15,2013-05-25 23:55:00,
2013-05-25 19:04:00,77.8,72.2,30.02,ESE,110,1.0,2.0,83,0.00,,,2.27,Wunderground v.1.15,2013-05-26 00:04:00,
2013-05-25 19:15:00,77.4,72.2,30.02,SSE,166,1.0,1.0,84,0.00,,,2.27,Wunderground v.1.15,2013-05-26 00:15:00,
2013-05-25 19:24:00,77.1,72.2,30.02,SE,125,0.0,1.0,85,0.00,,,2.27,Wunderground v.1.15,2013-05-26 00:24:00,
2013-05-25 19:30:00,77.0,72.5,30.02,SE,132,0.0,1.0,86,0.00,,,2.27,Wunderground v.1.15,2013-05-26 00:30:00,
2013-05-25 19:39:00,76.7,72.2,30.02,SE,132,1.0,1.0,86,0.00,,,2.27,Wunderground v.1.15,2013-05-26 00:39:00,
2013-05-25 19:45:00,76.6,72.1,30.02,East,89,1.0,1.0,86,0.00,,,2.27,Wunderground v.1.15,2013-05-26 00:45:00,
2013-05-25 19:54:00,76.3,71.8,30.02,SE,139,1.0,1.0,86,0.00,,,2.27,Wunderground v.1.15,2013-05-26 00:54:00,
2013-05-25 20:04:00,75.9,71.8,30.02,ESE,104,1.0,1.0,87,0.00,,,2.27,Wunderground v.1.15,2013-05-26 01:04:00,
2013-05-25 20:14:00,75.6,71.8,30.02,SW,221,1.0,1.0,88,0.00,,,2.27,Wunderground v.1.15,2013-05-26 01:14:00,
2013-05-25 20:20:00,75.5,72.0,30.03,SE,139,0.0,1.0,89,0.00,,,2.27,Wunderground v.1.15,2013-05-26 01:20:00,
2013-05-25 20:29:00,75.2,71.7,30.03,SE,127,0.0,0.0,89,0.00,,,2.27,Wunderground v.1.15,2013-05-26 01:29:00,
2013-05-25 20:35:00,75.1,72.0,30.03,SE,127,0.0,0.0,90,0.00,,,2.27,Wunderground v.1.15,2013-05-26 01:35:00,
2013-05-25 20:44:00,74.9,71.8,30.03,SSE,148,0.0,1.0,90,0.00,,,2.27,Wunderground v.1.15,2013-05-26 01:44:00,
2013-05-25 20:54:00,74.7,71.9,30.03,SSE,148,0.0,0.0,91,0.00,,,2.27,Wunderground v.1.15,2013-05-26 01:54:00,
2013-05-25 21:05:00,74.4,71.6,30.04,SE,146,0.0,0.0,91,0.00,,,2.27,Wunderground v.1.15,2013-05-26 02:05:00,
2013-05-25 21:14:00,74.2,71.7,30.03,SSE,147,0.0,0.0,92,0.00,,,2.27,Wunderground v.1.15,2013-05-26 02:14:00,
2013-05-25 21:25:00,74.0,71.5,30.04,SE,145,0.0,0.0,92,0.00,,,2.27,Wunderground v.1.15,2013-05-26 02:25:00,
2013-05-25 21:34:00,73.9,71.4,30.04,NW,316,0.0,0.0,92,0.00,,,2.27,Wunderground v.1.15,2013-05-26 02:34:00,
2013-05-25 21:40:00,73.8,71.3,30.04,SE,136,0.0,0.0,92,0.00,,,2.27,Wunderground v.1.15,2013-05-26 02:40:00,
2013-05-25 21:49:00,73.6,70.8,30.04,East,89,0.0,0.0,91,0.00,,,2.27,Wunderground v.1.15,2013-05-26 02:49:00,
2013-05-25 21:55:00,73.5,70.7,30.04,SE,138,0.0,0.0,91,0.00,,,2.27,Wunderground v.1.15,2013-05-26 02:55:00,
2013-05-25 22:04:00,73.4,70.3,30.05,ESE,120,1.0,1.0,90,0.00,,,2.27,Wunderground v.1.15,2013-05-26 03:04:00,
2013-05-25 22:15:00,73.2,70.1,30.05,NNE,33,0.0,1.0,90,0.00,,,2.27,Wunderground v.1.15,2013-05-26 03:15:00,
2013-05-25 22:24:00,72.8,69.7,30.06,NNE,33,0.0,0.0,90,0.00,,,2.27,Wunderground v.1.15,2013-05-26 03:24:00,
2013-05-25 22:30:00,72.7,69.6,30.06,NNE,33,0.0,0.0,90,0.00,,,2.27,Wunderground v.1.15,2013-05-26 03:30:00,
2013-05-25 22:39:00,72.3,69.8,30.07,NNE,33,0.0,0.0,92,0.00,,,2.27,Wunderground v.1.15,2013-05-26 03:39:00,
2013-05-25 22:45:00,72.0,69.5,30.07,SSE,162,0.0,0.0,92,0.00,,,2.27,Wunderground v.1.15,2013-05-26 03:45:00,
2013-05-25 22:54:00,71.6,69.2,30.08,NW,304,0.0,0.0,92,0.00,,,2.27,Wunderground v.1.15,2013-05-26 03:54:00,
2013-05-25 23:00:00,71.4,69.0,30.08,NW,304,0.0,0.0,92,0.00,,,2.27,Wunderground v.1.15,2013-05-26 04:00:00,
2013-05-25 23:04:00,71.3,69.2,30.08,NW,305,0.0,0.0,93,0.00,,,2.27,Wunderground v.1.15,2013-05-26 04:04:00,
2013-05-25 23:15:00,71.0,68.9,30.08,NW,305,0.0,0.0,93,0.00,,,2.27,Wunderground v.1.15,2013-05-26 04:15:00,
2013-05-25 23:19:00,70.9,69.1,30.08,NW,305,0.0,0.0,94,0.00,,,2.27,Wunderground v.1.15,2013-05-26 04:19:00,
2013-05-25 23:24:00,70.8,69.0,30.08,NW,304,0.0,0.0,94,0.00,,,2.27,Wunderground v.1.15,2013-05-26 04:24:00,
2013-05-25 23:30:00,70.7,68.9,30.08,NW,305,0.0,0.0,94,0.00,,,2.27,Wunderground v.1.15,2013-05-26 04:30:00,
2013-05-25 23:39:00,70.7,69.2,30.08,NW,305,0.0,0.0,95,0.00,,,2.27,Wunderground v.1.15,2013-05-26 04:39:00,
2013-05-25 23:45:00,70.8,69.3,30.08,NW,305,0.0,0.0,95,0.00,,,2.27,Wunderground v.1.15,2013-05-26 04:45:00,
2013-05-25 23:54:00,70.9,69.4,30.08,SE,141,0.0,0.0,95,0.00,,,2.27,Wunderground v.1.15,2013-05-26 04:54:00,